DAL28 KLAX-LGAV
Flight info
| Callsign | DAL28 |
|---|---|
| Flight time | N/A |
| Altitude | 33000 |
| Route | OSHNN1 BEALE Q842 WINEN DCT MLF DCT TOOKE DCT SWUNG DCT FAR/N0492F350 DCT MEBSI DCT LORNE DCT PETNO DCT ODKAP DCT KONCH/N0487F370 DCT RIKAL/M084F370 DCT 52N050W 51N040W 51N030W 50N020W 47N010W DCT SEPAL DCT LAPEX/N0477F370 DCT GALOF/N0478F390 DCT CNA DCT LERGA DCT TOZOT UT183 OTROT UM728 KOLON DCT RAPUR DCT RATAP DCT BTA DCT DOKAR DCT SUNEV DCT INGAB DCT ALIXI DCT DINOB DCT ARA UB34 NEMES |
| Aircraft | A359/H-SDE2E3GHIJ3J4J5LM1ORWXY/LB1D1 |
Departure
| Time | 2026-05-08 02:57 |
|---|---|
| Airport | Los Angeles International Airport (KLAX) |
Arrival
| Time | N/A |
|---|---|
| Airport | Athens Eleftherios Venizelos International Airport (LGAV) |
| Time | Latitude | Longitude | Altitude | Speed | Heading |
|---|---|---|---|---|---|
| 2026-05-08 02:34 | 33.94025 | -118.40916 | 124 ft | 0 kts | 264° |
| 2026-05-08 02:46 | 33.94026 | -118.40913 | 132 ft | 2 kts | 263° |
| 2026-05-08 02:46 | 33.94029 | -118.40894 | 126 ft | 2 kts | 252° |
| 2026-05-08 02:46 | 33.94036 | -118.40876 | 132 ft | 2 kts | 236° |
| 2026-05-08 02:46 | 33.94047 | -118.40861 | 128 ft | 2 kts | 218° |
| 2026-05-08 02:47 | 33.94061 | -118.40851 | 127 ft | 2 kts | 200° |
| 2026-05-08 02:47 | 33.94076 | -118.40846 | 132 ft | 2 kts | 188° |
| 2026-05-08 02:47 | 33.94093 | -118.40845 | 132 ft | 2 kts | 178° |
| 2026-05-08 02:47 | 33.94101 | -118.40845 | 128 ft | 0 kts | 174° |
| 2026-05-08 02:50 | 33.94080 | -118.40837 | 129 ft | 8 kts | 164° |
| 2026-05-08 02:50 | 33.93997 | -118.40819 | 130 ft | 16 kts | 173° |
| 2026-05-08 02:51 | 33.93890 | -118.40781 | 127 ft | 15 kts | 140° |
| 2026-05-08 02:51 | 33.93820 | -118.40696 | 125 ft | 14 kts | 115° |
| 2026-05-08 02:51 | 33.93820 | -118.40581 | 129 ft | 14 kts | 82° |
| 2026-05-08 02:51 | 33.93832 | -118.40463 | 130 ft | 15 kts | 83° |
| 2026-05-08 02:52 | 33.93845 | -118.40328 | 130 ft | 17 kts | 83° |
| 2026-05-08 02:52 | 33.93861 | -118.40176 | 128 ft | 19 kts | 83° |
| 2026-05-08 02:52 | 33.93877 | -118.40015 | 129 ft | 19 kts | 83° |
| 2026-05-08 02:52 | 33.93893 | -118.39856 | 130 ft | 19 kts | 83° |
| 2026-05-08 02:53 | 33.93909 | -118.39698 | 128 ft | 19 kts | 83° |
| 2026-05-08 02:53 | 33.93925 | -118.39541 | 125 ft | 19 kts | 83° |
| 2026-05-08 02:53 | 33.93941 | -118.39385 | 124 ft | 19 kts | 83° |
| 2026-05-08 02:53 | 33.93957 | -118.39229 | 125 ft | 19 kts | 83° |
| 2026-05-08 02:54 | 33.93973 | -118.39074 | 128 ft | 19 kts | 83° |
| 2026-05-08 02:54 | 33.93989 | -118.38920 | 129 ft | 19 kts | 83° |
| 2026-05-08 02:54 | 33.94004 | -118.38769 | 128 ft | 18 kts | 83° |
| 2026-05-08 02:54 | 33.94020 | -118.38616 | 130 ft | 18 kts | 83° |
| 2026-05-08 02:55 | 33.94035 | -118.38464 | 122 ft | 18 kts | 83° |
| 2026-05-08 02:55 | 33.94041 | -118.38366 | 132 ft | 0 kts | 101° |
| 2026-05-08 02:55 | 33.94040 | -118.38363 | 123 ft | 2 kts | 107° |
| 2026-05-08 02:56 | 33.94005 | -118.38332 | 128 ft | 10 kts | 169° |
| 2026-05-08 02:56 | 33.93950 | -118.38380 | 123 ft | 10 kts | 255° |
| 2026-05-08 02:56 | 33.93940 | -118.38461 | 123 ft | 12 kts | 263° |
| 2026-05-08 02:56 | 33.93909 | -118.38776 | 125 ft | 69 kts | 263° |
| 2026-05-08 02:57 | 33.93824 | -118.39607 | 124 ft | 129 kts | 263° |
| 2026-05-08 02:57 | 33.93691 | -118.40885 | 147 ft | 178 kts | 262° |
| 2026-05-08 02:57 | 33.93547 | -118.42392 | 676 ft | 187 kts | 261° |
| 2026-05-08 02:57 | 33.93385 | -118.44008 | 1300 ft | 198 kts | 263° |
| 2026-05-08 02:58 | 33.93198 | -118.45657 | 1906 ft | 196 kts | 259° |
| 2026-05-08 02:58 | 33.92617 | -118.47100 | 2411 ft | 192 kts | 230° |
| 2026-05-08 02:58 | 33.91545 | -118.48021 | 2789 ft | 191 kts | 213° |
| 2026-05-08 02:58 | 33.90502 | -118.49025 | 2982 ft | 197 kts | 234° |
| 2026-05-08 02:59 | 33.89697 | -118.50404 | 3168 ft | 207 kts | 239° |
| 2026-05-08 02:59 | 33.88867 | -118.51859 | 3342 ft | 221 kts | 237° |
| 2026-05-08 02:59 | 33.87917 | -118.53386 | 3492 ft | 235 kts | 235° |
| 2026-05-08 02:59 | 33.86817 | -118.54925 | 3693 ft | 250 kts | 225° |
| 2026-05-08 03:00 | 33.85394 | -118.56208 | 3959 ft | 262 kts | 211° |
| 2026-05-08 03:00 | 33.83621 | -118.56841 | 4274 ft | 275 kts | 183° |
| 2026-05-08 03:00 | 33.81706 | -118.56559 | 4713 ft | 280 kts | 175° |
| 2026-05-08 03:00 | 33.79771 | -118.56178 | 5133 ft | 284 kts | 171° |
| 2026-05-08 03:01 | 33.77847 | -118.55583 | 5579 ft | 287 kts | 165° |
| 2026-05-08 03:01 | 33.75953 | -118.54783 | 6059 ft | 289 kts | 164° |
| 2026-05-08 03:01 | 33.74011 | -118.54150 | 6499 ft | 290 kts | 169° |
| 2026-05-08 03:01 | 33.72069 | -118.53483 | 6942 ft | 293 kts | 160° |
| 2026-05-08 03:02 | 33.70313 | -118.52236 | 7427 ft | 295 kts | 138° |
| 2026-05-08 03:02 | 33.69099 | -118.50300 | 7880 ft | 295 kts | 113° |
| 2026-05-08 03:02 | 33.68369 | -118.47960 | 8429 ft | 295 kts | 107° |
| 2026-05-08 03:02 | 33.67726 | -118.45622 | 8975 ft | 296 kts | 107° |
| 2026-05-08 03:03 | 33.67075 | -118.43301 | 9538 ft | 297 kts | 107° |
| 2026-05-08 03:03 | 33.66392 | -118.40921 | 10064 ft | 298 kts | 107° |
| 2026-05-08 03:03 | 33.65707 | -118.38569 | 10366 ft | 308 kts | 108° |
| 2026-05-08 03:03 | 33.64984 | -118.36100 | 10607 ft | 320 kts | 108° |
| 2026-05-08 03:04 | 33.64473 | -118.33451 | 10799 ft | 330 kts | 92° |
| 2026-05-08 03:04 | 33.64409 | -118.30655 | 11027 ft | 341 kts | 88° |
| 2026-05-08 03:04 | 33.64427 | -118.27769 | 11250 ft | 352 kts | 88° |
| 2026-05-08 03:04 | 33.64444 | -118.24780 | 11469 ft | 362 kts | 88° |
| 2026-05-08 03:05 | 33.64536 | -118.21720 | 11656 ft | 372 kts | 82° |
| 2026-05-08 03:05 | 33.65220 | -118.18705 | 11850 ft | 379 kts | 64° |
| 2026-05-08 03:05 | 33.66717 | -118.16086 | 12008 ft | 386 kts | 44° |
| 2026-05-08 03:05 | 33.68783 | -118.14009 | 12298 ft | 390 kts | 37° |
| 2026-05-08 03:06 | 33.70974 | -118.12068 | 12664 ft | 393 kts | 36° |
| 2026-05-08 03:06 | 33.73183 | -118.10120 | 13039 ft | 395 kts | 37° |
| 2026-05-08 03:06 | 33.75408 | -118.08146 | 13377 ft | 398 kts | 37° |
| 2026-05-08 03:06 | 33.77634 | -118.06160 | 13748 ft | 400 kts | 37° |
| 2026-05-08 03:07 | 33.79866 | -118.04162 | 14097 ft | 401 kts | 37° |
| 2026-05-08 03:07 | 33.82080 | -118.02177 | 14427 ft | 403 kts | 37° |
| 2026-05-08 03:07 | 33.84337 | -118.00150 | 14779 ft | 405 kts | 37° |
| 2026-05-08 03:07 | 33.86598 | -117.98117 | 15108 ft | 406 kts | 37° |
| 2026-05-08 03:08 | 33.88865 | -117.96077 | 15463 ft | 407 kts | 37° |
| 2026-05-08 03:08 | 33.91137 | -117.94032 | 15836 ft | 408 kts | 37° |
| 2026-05-08 03:08 | 33.93414 | -117.91968 | 16154 ft | 410 kts | 37° |
| 2026-05-08 03:08 | 33.95688 | -117.89884 | 16471 ft | 412 kts | 37° |
| 2026-05-08 03:09 | 33.97957 | -117.87812 | 16802 ft | 414 kts | 37° |
| 2026-05-08 03:09 | 34.00279 | -117.85682 | 17153 ft | 416 kts | 37° |
| 2026-05-08 03:09 | 34.02588 | -117.83563 | 17480 ft | 417 kts | 37° |
| 2026-05-08 03:09 | 34.04872 | -117.81469 | 17812 ft | 419 kts | 37° |
| 2026-05-08 03:10 | 34.07201 | -117.79330 | 18157 ft | 421 kts | 37° |
| 2026-05-08 03:10 | 34.09400 | -117.76982 | 18457 ft | 423 kts | 46° |
| 2026-05-08 03:10 | 34.11326 | -117.74281 | 18755 ft | 426 kts | 50° |
| 2026-05-08 03:10 | 34.13190 | -117.71507 | 19062 ft | 427 kts | 50° |
| 2026-05-08 03:11 | 34.15065 | -117.68709 | 19352 ft | 429 kts | 50° |
| 2026-05-08 03:11 | 34.16948 | -117.65902 | 19664 ft | 431 kts | 50° |
| 2026-05-08 03:11 | 34.18837 | -117.63088 | 19964 ft | 432 kts | 50° |
| 2026-05-08 03:11 | 34.20737 | -117.60259 | 20308 ft | 434 kts | 50° |
| 2026-05-08 03:12 | 34.22643 | -117.57422 | 20625 ft | 435 kts | 50° |
| 2026-05-08 03:12 | 34.24552 | -117.54578 | 20941 ft | 437 kts | 50° |
| 2026-05-08 03:12 | 34.26469 | -117.51722 | 21225 ft | 439 kts | 50° |
| 2026-05-08 03:12 | 34.28401 | -117.48842 | 21512 ft | 441 kts | 50° |
| 2026-05-08 03:13 | 34.30337 | -117.45954 | 21845 ft | 442 kts | 50° |
| 2026-05-08 03:13 | 34.32283 | -117.43055 | 22195 ft | 443 kts | 50° |
| 2026-05-08 03:13 | 34.34229 | -117.40144 | 22503 ft | 445 kts | 50° |
| 2026-05-08 03:13 | 34.36180 | -117.37222 | 22818 ft | 447 kts | 50° |
| 2026-05-08 03:14 | 34.38113 | -117.34327 | 23124 ft | 449 kts | 50° |
| 2026-05-08 03:14 | 34.40079 | -117.31378 | 23433 ft | 451 kts | 50° |
| 2026-05-08 03:14 | 34.42061 | -117.28406 | 23701 ft | 453 kts | 50° |
| 2026-05-08 03:14 | 34.44047 | -117.25423 | 23963 ft | 455 kts | 50° |
| 2026-05-08 03:15 | 34.46037 | -117.22434 | 24297 ft | 457 kts | 50° |
| 2026-05-08 03:15 | 34.48041 | -117.19421 | 24579 ft | 459 kts | 50° |
| 2026-05-08 03:15 | 34.50049 | -117.16400 | 24810 ft | 461 kts | 50° |
| 2026-05-08 03:15 | 34.52069 | -117.13357 | 25128 ft | 462 kts | 50° |
| 2026-05-08 03:16 | 34.54059 | -117.10359 | 25402 ft | 464 kts | 50° |
| 2026-05-08 03:16 | 34.56110 | -117.07320 | 25720 ft | 464 kts | 49° |
| 2026-05-08 03:16 | 34.58185 | -117.04313 | 26090 ft | 464 kts | 49° |
| 2026-05-08 03:16 | 34.60269 | -117.01293 | 26299 ft | 467 kts | 49° |
| 2026-05-08 03:17 | 34.62357 | -116.98260 | 26548 ft | 470 kts | 49° |
| 2026-05-08 03:17 | 34.64455 | -116.95206 | 26821 ft | 471 kts | 49° |
| 2026-05-08 03:17 | 34.66556 | -116.92142 | 27132 ft | 472 kts | 49° |
| 2026-05-08 03:17 | 34.68656 | -116.89075 | 27408 ft | 473 kts | 49° |
| 2026-05-08 03:18 | 34.70769 | -116.85985 | 27618 ft | 476 kts | 49° |
| 2026-05-08 03:18 | 34.72892 | -116.82879 | 27882 ft | 478 kts | 49° |
| 2026-05-08 03:18 | 34.75022 | -116.79758 | 28156 ft | 479 kts | 49° |
| 2026-05-08 03:18 | 34.77149 | -116.76638 | 28385 ft | 481 kts | 49° |
| 2026-05-08 03:19 | 34.79265 | -116.73532 | 28554 ft | 483 kts | 49° |
| 2026-05-08 03:19 | 34.81413 | -116.70374 | 28809 ft | 484 kts | 49° |
| 2026-05-08 03:19 | 34.83554 | -116.67226 | 29189 ft | 482 kts | 49° |
| 2026-05-08 03:19 | 34.85691 | -116.64082 | 29529 ft | 481 kts | 49° |
| 2026-05-08 03:20 | 34.87897 | -116.61026 | 29858 ft | 480 kts | 46° |
| 2026-05-08 03:20 | 34.90163 | -116.58044 | 30154 ft | 478 kts | 46° |
| 2026-05-08 03:20 | 34.92422 | -116.55071 | 30307 ft | 481 kts | 46° |
| 2026-05-08 03:20 | 34.94697 | -116.52059 | 30435 ft | 483 kts | 46° |
| 2026-05-08 03:21 | 34.96960 | -116.49044 | 30684 ft | 481 kts | 46° |
| 2026-05-08 03:21 | 34.99213 | -116.46034 | 30966 ft | 480 kts | 46° |
| 2026-05-08 03:21 | 35.01458 | -116.43029 | 31221 ft | 479 kts | 46° |
| 2026-05-08 03:21 | 35.03703 | -116.40018 | 31464 ft | 478 kts | 46° |
| 2026-05-08 03:22 | 35.05939 | -116.37016 | 31681 ft | 478 kts | 46° |
| 2026-05-08 03:22 | 35.08171 | -116.34016 | 31906 ft | 477 kts | 46° |
| 2026-05-08 03:22 | 35.10373 | -116.31055 | 32113 ft | 476 kts | 46° |
| 2026-05-08 03:22 | 35.12591 | -116.28069 | 32324 ft | 476 kts | 46° |
| 2026-05-08 03:23 | 35.14819 | -116.25065 | 32533 ft | 475 kts | 46° |
| 2026-05-08 03:23 | 35.17041 | -116.22067 | 32670 ft | 476 kts | 46° |
| 2026-05-08 03:23 | 35.19266 | -116.19062 | 32834 ft | 476 kts | 46° |
| 2026-05-08 03:24 | 35.23738 | -116.13018 | 32879 ft | 481 kts | 46° |
| 2026-05-08 03:24 | 35.28233 | -116.06931 | 32881 ft | 482 kts | 46° |
| 2026-05-08 03:25 | 35.32728 | -116.00830 | 32904 ft | 482 kts | 46° |
| 2026-05-08 03:25 | 35.37197 | -115.94756 | 32922 ft | 482 kts | 46° |
| 2026-05-08 03:26 | 35.41682 | -115.88648 | 32932 ft | 482 kts | 46° |
| 2026-05-08 03:26 | 35.46157 | -115.82544 | 32933 ft | 481 kts | 46° |
| 2026-05-08 03:27 | 35.50638 | -115.76421 | 32950 ft | 481 kts | 46° |
| 2026-05-08 03:27 | 35.55111 | -115.70297 | 32951 ft | 481 kts | 46° |
| 2026-05-08 03:28 | 35.59574 | -115.64175 | 32948 ft | 481 kts | 46° |
| 2026-05-08 03:28 | 35.64040 | -115.58037 | 32954 ft | 480 kts | 46° |
| 2026-05-08 03:29 | 35.68486 | -115.51918 | 32955 ft | 480 kts | 46° |
| 2026-05-08 03:29 | 35.72932 | -115.45795 | 32961 ft | 480 kts | 46° |
| 2026-05-08 03:30 | 35.79588 | -115.36583 | 32957 ft | 480 kts | 46° |
| 2026-05-08 03:31 | 35.88446 | -115.24295 | 32961 ft | 477 kts | 46° |
| 2026-05-08 03:32 | 35.95029 | -115.15135 | 32963 ft | 478 kts | 46° |
| 2026-05-08 03:32 | 35.99446 | -115.08976 | 32960 ft | 478 kts | 46° |
| 2026-05-08 03:33 | 36.03853 | -115.02819 | 32958 ft | 478 kts | 46° |
| 2026-05-08 03:33 | 36.08258 | -114.96652 | 32898 ft | 479 kts | 46° |
| 2026-05-08 03:34 | 36.12663 | -114.90475 | 32846 ft | 479 kts | 46° |
| 2026-05-08 03:34 | 36.17124 | -114.84431 | 32843 ft | 477 kts | 41° |
| 2026-05-08 03:35 | 36.22516 | -114.79746 | 32835 ft | 474 kts | 28° |
| 2026-05-08 03:35 | 36.28306 | -114.75848 | 32824 ft | 474 kts | 26° |
| 2026-05-08 03:36 | 36.34152 | -114.72044 | 32809 ft | 474 kts | 26° |
| 2026-05-08 03:36 | 36.39000 | -114.68863 | 32805 ft | 474 kts | 26° |
| 2026-05-08 03:37 | 36.44856 | -114.64984 | 32788 ft | 474 kts | 27° |
| 2026-05-08 03:37 | 36.50632 | -114.61136 | 32782 ft | 473 kts | 26° |
| 2026-05-08 03:38 | 36.56426 | -114.57266 | 32783 ft | 472 kts | 26° |
| 2026-05-08 03:38 | 36.62216 | -114.53396 | 32793 ft | 472 kts | 26° |
| 2026-05-08 03:39 | 36.68003 | -114.49522 | 32796 ft | 472 kts | 26° |
| 2026-05-08 03:39 | 36.73769 | -114.45595 | 32800 ft | 472 kts | 29° |
| 2026-05-08 03:40 | 36.79349 | -114.41220 | 32810 ft | 474 kts | 31° |
| 2026-05-08 03:40 | 36.84838 | -114.36761 | 32820 ft | 473 kts | 31° |
| 2026-05-08 03:41 | 36.90387 | -114.32327 | 32825 ft | 473 kts | 30° |
| 2026-05-08 03:41 | 36.95954 | -114.27930 | 32827 ft | 473 kts | 30° |
| 2026-05-08 03:42 | 37.01529 | -114.23540 | 32832 ft | 473 kts | 31° |
| 2026-05-08 03:42 | 37.07128 | -114.19124 | 32850 ft | 478 kts | 31° |
| 2026-05-08 03:43 | 37.12756 | -114.14673 | 32857 ft | 478 kts | 31° |
| 2026-05-08 03:43 | 37.18376 | -114.10216 | 32865 ft | 478 kts | 31° |
| 2026-05-08 03:44 | 37.24002 | -114.05747 | 32881 ft | 478 kts | 31° |
| 2026-05-08 03:44 | 37.29590 | -114.01300 | 32881 ft | 478 kts | 30° |
| 2026-05-08 03:45 | 37.35194 | -113.96832 | 32895 ft | 477 kts | 30° |
| 2026-05-08 03:45 | 37.40797 | -113.92358 | 32891 ft | 477 kts | 30° |
| 2026-05-08 03:46 | 37.46397 | -113.87878 | 32890 ft | 477 kts | 30° |
| 2026-05-08 03:46 | 37.52004 | -113.83386 | 32902 ft | 477 kts | 30° |
| 2026-05-08 03:47 | 37.57602 | -113.78891 | 32910 ft | 477 kts | 30° |
| 2026-05-08 03:47 | 37.63160 | -113.74421 | 32912 ft | 476 kts | 30° |
| 2026-05-08 03:48 | 37.68746 | -113.69921 | 32911 ft | 476 kts | 30° |
| 2026-05-08 03:48 | 37.74332 | -113.65413 | 32912 ft | 476 kts | 30° |
| 2026-05-08 03:49 | 37.79911 | -113.60901 | 32913 ft | 476 kts | 30° |
| 2026-05-08 03:49 | 37.85484 | -113.56386 | 32915 ft | 476 kts | 30° |
| 2026-05-08 03:50 | 37.91071 | -113.51851 | 32917 ft | 476 kts | 30° |
| 2026-05-08 03:50 | 37.96304 | -113.46640 | 32913 ft | 479 kts | 38° |
| 2026-05-08 03:51 | 38.01309 | -113.41046 | 32913 ft | 480 kts | 38° |
| 2026-05-08 03:51 | 38.06239 | -113.35420 | 32914 ft | 479 kts | 39° |
| 2026-05-08 03:52 | 38.11203 | -113.29749 | 32917 ft | 479 kts | 38° |
| 2026-05-08 03:52 | 38.16170 | -113.24082 | 32934 ft | 479 kts | 38° |
| 2026-05-08 03:53 | 38.21107 | -113.18447 | 32959 ft | 479 kts | 38° |
| 2026-05-08 03:53 | 38.26067 | -113.12775 | 32986 ft | 479 kts | 38° |
| 2026-05-08 03:54 | 38.31018 | -113.07101 | 33013 ft | 478 kts | 38° |
| 2026-05-08 03:54 | 38.35960 | -113.01427 | 33027 ft | 478 kts | 38° |
| 2026-05-08 03:55 | 38.40869 | -112.95716 | 33027 ft | 478 kts | 39° |
| 2026-05-08 03:55 | 38.45742 | -112.89933 | 33025 ft | 478 kts | 39° |
| 2026-05-08 03:56 | 38.50613 | -112.84148 | 33004 ft | 478 kts | 39° |
| 2026-05-08 03:56 | 38.55459 | -112.78399 | 32991 ft | 478 kts | 39° |
| 2026-05-08 03:57 | 38.60332 | -112.72616 | 32966 ft | 478 kts | 39° |
| 2026-05-08 03:57 | 38.65205 | -112.66824 | 32961 ft | 478 kts | 38° |
| 2026-05-08 03:58 | 38.70068 | -112.61033 | 32946 ft | 477 kts | 38° |
| 2026-05-08 03:58 | 38.74930 | -112.55232 | 32956 ft | 477 kts | 38° |
| 2026-05-08 03:59 | 38.79788 | -112.49422 | 33019 ft | 477 kts | 39° |
| 2026-05-08 03:59 | 38.84640 | -112.43607 | 33053 ft | 477 kts | 38° |